Time;durP1;ratioP1;P1;durP2;ratioP2;P2;SDS_P1;SDS_P2;PMS_P1;PMS_P2;Temp;Humidity;BMP_temperature;BMP_pressure;BME280_temperature;BME280_humidity;BME280_pressure;Samples;Min_cycle;Max_cycle;Signal;HPM_P1;HPM_P2
2020/12/12 07:30:14;;;;;;;14.33;8.90;;;4.90;99.40;;;;;;1227619;23;20489;-82
2020/12/12 07:32:41;;;;;;;17.27;8.90;;;5.00;99.30;;;;;;4937628;29;20386;-90
2020/12/12 07:35:11;;;;;;;15.85;9.02;;;5.10;99.30;;;;;;4935981;29;20130;-89
2020/12/12 07:37:38;;;;;;;15.07;8.55;;;5.20;99.30;;;;;;4932554;29;20130;-90
2020/12/12 07:40:05;;;;;;;11.98;7.85;;;5.10;99.20;;;;;;4944809;29;20083;-89
2020/12/12 07:42:35;;;;;;;14.13;8.55;;;5.10;99.20;;;;;;4938410;29;20134;-89
2020/12/12 07:45:12;;;;;;;12.75;8.07;;;5.10;99.20;;;;;;4934612;29;20071;-89
2020/12/12 07:47:39;;;;;;;13.10;7.93;;;5.20;99.20;;;;;;4953856;29;20062;-89
2020/12/12 07:50:07;;;;;;;13.05;7.72;;;5.20;99.30;;;;;;4947611;28;20561;-89
2020/12/12 07:52:34;;;;;;;13.77;8.30;;;5.20;99.50;;;;;;4956622;29;20151;-88
2020/12/12 07:55:03;;;;;;;9.25;5.47;;;5.30;99.60;;;;;;4951390;29;20051;-89
2020/12/12 07:57:30;;;;;;;12.27;8.20;;;5.30;99.50;;;;;;4958926;28;20051;-88
2020/12/12 08:00:08;;;;;;;11.95;7.78;;;5.40;99.40;;;;;;4956639;28;20051;-89
2020/12/12 08:02:34;;;;;;;11.75;7.70;;;5.40;99.40;;;;;;4948412;29;20139;-87
2020/12/12 08:05:02;;;;;;;12.68;8.07;;;5.50;99.40;;;;;;4939283;29;20553;-89
2020/12/12 08:07:32;;;;;;;12.80;8.05;;;5.50;99.40;;;;;;4948824;29;20494;-89
2020/12/12 08:10:00;;;;;;;11.23;7.05;;;5.60;99.50;;;;;;4938367;29;20146;-87
2020/12/12 08:12:32;;;;;;;11.63;7.72;;;5.60;99.50;;;;;;4938533;29;20138;-88
2020/12/12 08:15:10;;;;;;;10.88;6.35;;;5.60;99.30;;;;;;4938594;29;20055;-87
2020/12/12 08:17:36;;;;;;;8.70;5.47;;;5.70;99.40;;;;;;4951694;29;20517;-87
2020/12/12 08:20:04;;;;;;;9.15;5.75;;;5.70;99.20;;;;;;4949405;28;20083;-86
2020/12/12 08:22:36;;;;;;;9.82;5.75;;;5.90;99.10;;;;;;4954094;29;20075;-86
2020/12/12 08:25:07;;;;;;;9.30;5.78;;;6.00;99.10;;;;;;4919458;29;20051;-87
2020/12/12 08:27:34;;;;;;;9.52;6.10;;;6.00;98.90;;;;;;4926426;29;20480;-86
2020/12/12 08:30:02;;;;;;;11.13;5.95;;;6.10;98.80;;;;;;4937025;29;20051;-88
2020/12/12 08:32:35;;;;;;;9.45;5.50;;;6.10;98.70;;;;;;4955796;28;20044;-85
2020/12/12 08:35:22;;;;;;;7.70;4.95;;;6.30;98.70;;;;;;4957125;28;20404;-86
2020/12/12 08:37:56;;;;;;;6.47;4.15;;;6.30;98.40;;;;;;4956961;28;20130;-87
2020/12/12 08:40:26;;;;;;;8.25;4.53;;;6.30;98.20;;;;;;4952408;29;20054;-87
2020/12/12 08:42:59;;;;;;;7.18;4.40;;;6.30;98.20;;;;;;4947707;29;20151;-81
2020/12/12 08:45:27;;;;;;;7.20;4.28;;;6.30;98.30;;;;;;4950594;28;20078;-82
2020/12/12 08:48:09;;;;;;;6.03;4.05;;;6.50;98.20;;;;;;4968903;28;20438;-83
2020/12/12 08:50:50;;;;;;;8.43;5.38;;;6.50;98.20;;;;;;4969737;28;20130;-81
2020/12/12 08:53:24;;;;;;;9.40;5.57;;;6.50;98.50;;;;;;4976737;28;20085;-83
2020/12/12 08:56:07;;;;;;;8.67;5.57;;;6.50;98.40;;;;;;4974431;28;20083;-79
2020/12/12 08:58:40;;;;;;;7.60;5.38;;;6.50;98.70;;;;;;4963702;29;20111;-82
2020/12/12 09:01:15;;;;;;;9.68;5.53;;;6.50;98.80;;;;;;4963150;28;20074;-79
2020/12/12 09:04:15;;;;;;;9.90;5.65;;;6.50;98.80;;;;;;4960449;29;20048;-79
2020/12/12 09:06:54;;;;;;;11.40;6.25;;;6.50;99.00;;;;;;4979767;28;20058;-84
2020/12/12 09:09:24;;;;;;;8.65;6.00;;;6.50;99.30;;;;;;4966157;28;20039;-83
2020/12/12 09:11:57;;;;;;;8.77;5.50;;;6.50;99.40;;;;;;4946982;28;20047;-83
2020/12/12 09:14:25;;;;;;;6.78;4.10;;;6.60;98.90;;;;;;4956170;28;20059;-82
2020/12/12 09:16:55;;;;;;;8.10;5.28;;;6.70;98.50;;;;;;4956594;29;20098;-82
2020/12/12 09:19:22;;;;;;;7.75;4.80;;;6.70;98.40;;;;;;4971180;28;20050;-82
2020/12/12 09:21:50;;;;;;;7.53;4.80;;;6.80;98.30;;;;;;4965041;28;20137;-81
2020/12/12 09:24:19;;;;;;;8.30;4.80;;;6.80;98.40;;;;;;4973357;28;20053;-82
2020/12/12 09:26:48;;;;;;;6.32;4.22;;;6.90;98.10;;;;;;4958429;28;20050;-82
2020/12/12 09:29:16;;;;;;;8.25;4.55;;;6.90;98.10;;;;;;4975769;28;20453;-84
2020/12/12 09:31:43;;;;;;;7.22;4.57;;;7.00;97.80;;;;;;4948642;28;20094;-81
2020/12/12 09:34:09;;;;;;;7.97;5.03;;;7.00;97.70;;;;;;4937514;29;20135;-84
2020/12/12 09:36:36;;;;;;;7.22;4.78;;;7.00;97.60;;;;;;4936382;29;20131;-83
2020/12/12 09:39:03;;;;;;;7.40;4.75;;;7.00;97.70;;;;;;4946245;29;20062;-82
2020/12/12 09:41:30;;;;;;;8.25;4.97;;;7.00;97.50;;;;;;4935885;29;20138;-82
2020/12/12 09:43:59;;;;;;;8.00;4.82;;;7.00;97.80;;;;;;4946610;29;20079;-81
2020/12/12 09:46:26;;;;;;;7.80;4.70;;;6.90;97.90;;;;;;4934789;29;20480;-81
2020/12/12 09:48:53;;;;;;;8.23;5.00;;;6.90;98.10;;;;;;4934652;29;20091;-86
2020/12/12 09:51:19;;;;;;;9.93;5.28;;;6.90;98.30;;;;;;4936314;29;20086;-84
2020/12/12 09:53:47;;;;;;;7.82;5.10;;;6.90;98.50;;;;;;4934874;29;20160;-82
2020/12/12 09:56:15;;;;;;;6.97;4.80;;;6.80;98.80;;;;;;4925496;29;20341;-84
2020/12/12 09:58:42;;;;;;;8.65;5.13;;;6.80;98.80;;;;;;4932915;29;20130;-83
2020/12/12 10:01:10;;;;;;;9.05;5.78;;;6.90;98.50;;;;;;4932930;29;20569;-84
2020/12/12 10:03:36;;;;;;;9.18;5.78;;;6.80;98.90;;;;;;4936394;29;20048;-83
2020/12/12 10:06:08;;;;;;;8.88;5.70;;;6.90;99.10;;;;;;4944854;29;20142;-83
2020/12/12 10:08:35;;;;;;;8.65;5.60;;;7.00;99.10;;;;;;4948648;29;20043;-83
2020/12/12 10:11:02;;;;;;;9.73;6.68;;;7.00;98.90;;;;;;4937456;29;20138;-84
2020/12/12 10:13:29;;;;;;;9.50;6.40;;;7.00;98.70;;;;;;4934184;29;20519;-85
2020/12/12 10:15:55;;;;;;;9.18;5.90;;;7.00;98.60;;;;;;4938726;29;20139;-84
2020/12/12 10:18:23;;;;;;;10.75;6.43;;;7.00;98.90;;;;;;4941807;29;20239;-87
2020/12/12 10:20:49;;;;;;;10.10;6.75;;;7.00;99.00;;;;;;4927486;29;20446;-87
2020/12/12 10:23:17;;;;;;;10.52;7.13;;;7.10;98.90;;;;;;4936904;29;20047;-91
2020/12/12 10:25:56;;;;;;;9.73;6.28;;;6.90;99.30;;;;;;4939343;29;20054;-89
2020/12/12 10:28:30;;;;;;;11.32;7.40;;;7.00;99.50;;;;;;4926263;29;20047;-90
2020/12/12 10:31:03;;;;;;;9.25;5.90;;;7.00;99.60;;;;;;4939212;29;20060;-89
2020/12/12 10:33:39;;;;;;;7.97;5.68;;;7.00;99.20;;;;;;4947596;29;20094;-88
2020/12/12 10:36:21;;;;;;;10.75;7.07;;;7.10;98.90;;;;;;4935116;29;20462;-91
2020/12/12 10:38:56;;;;;;;10.02;6.57;;;7.20;98.80;;;;;;4912894;29;20052;-89
2020/12/12 10:41:33;;;;;;;9.80;6.25;;;7.20;98.60;;;;;;4936700;29;20059;-88
2020/12/12 10:44:08;;;;;;;9.70;6.32;;;7.20;98.50;;;;;;4937176;29;20075;-92
2020/12/12 10:46:34;;;;;;;24.83;13.98;;;7.20;98.50;;;;;;4944218;29;20074;-91
2020/12/12 10:49:02;;;;;;;19.05;10.40;;;7.30;98.70;;;;;;4948636;28;20224;-87
2020/12/12 10:51:28;;;;;;;17.63;9.15;;;7.30;98.30;;;;;;4952256;28;20047;-86
2020/12/12 10:53:56;;;;;;;10.55;6.78;;;7.20;98.30;;;;;;4937941;29;20138;-89
2020/12/12 10:56:22;;;;;;;10.55;5.75;;;7.20;98.40;;;;;;4938180;29;20059;-89
2020/12/12 10:58:49;;;;;;;9.85;5.55;;;7.30;98.70;;;;;;4937510;29;20058;-88
2020/12/12 11:01:16;;;;;;;8.48;5.78;;;7.20;98.30;;;;;;4955142;28;20051;-89
2020/12/12 11:03:42;;;;;;;9.25;5.63;;;7.20;98.30;;;;;;4955136;28;20052;-88
2020/12/12 11:06:12;;;;;;;9.23;5.78;;;7.30;98.40;;;;;;4955005;29;20464;-89
2020/12/12 11:08:38;;;;;;;11.02;6.45;;;7.30;98.40;;;;;;4953526;29;20476;-89
2020/12/12 11:11:05;;;;;;;9.35;5.93;;;7.30;98.50;;;;;;4921590;29;20054;-88
2020/12/12 11:13:32;;;;;;;9.02;5.80;;;7.30;98.60;;;;;;4926991;29;20861;-87
2020/12/12 11:15:58;;;;;;;9.88;6.13;;;7.40;98.60;;;;;;4936001;29;20134;-88
2020/12/12 11:18:25;;;;;;;9.05;5.53;;;7.30;98.70;;;;;;4921591;29;20055;-88
2020/12/12 11:20:52;;;;;;;8.43;5.20;;;7.30;98.70;;;;;;4938007;29;20078;-88
2020/12/12 11:23:20;;;;;;;9.75;6.05;;;7.40;98.80;;;;;;4937848;29;20579;-88
2020/12/12 11:25:47;;;;;;;9.90;5.88;;;7.30;98.90;;;;;;4922315;29;20056;-87
2020/12/12 11:28:13;;;;;;;9.70;6.18;;;7.30;99.00;;;;;;4956102;29;20138;-88
2020/12/12 11:30:40;;;;;;;9.40;6.32;;;7.30;99.20;;;;;;4938239;29;20097;-87
2020/12/12 11:33:07;;;;;;;9.15;5.90;;;7.30;99.60;;;;;;4955026;28;20051;-88
2020/12/12 11:35:39;;;;;;;9.35;6.70;;;7.40;99.50;;;;;;4955006;28;20544;-88
2020/12/12 11:38:21;;;;;;;9.18;5.38;;;7.30;99.50;;;;;;4954999;29;20134;-88
2020/12/12 11:40:58;;;;;;;9.25;5.57;;;7.30;99.40;;;;;;4953442;28;20086;-87
2020/12/12 11:46:28;;;;;;;8.90;5.83;;;7.30;99.50;;;;;;4937895;29;20051;-87
2020/12/12 11:48:57;;;;;;;10.52;5.85;;;7.40;99.70;;;;;;4954860;29;20326;-87
2020/12/12 11:51:24;;;;;;;10.20;6.30;;;7.40;99.80;;;;;;4937908;29;20075;-88
2020/12/12 11:53:51;;;;;;;8.57;5.32;;;7.40;99.80;;;;;;4954764;28;20450;-87
2020/12/12 11:56:23;;;;;;;8.88;5.25;;;7.40;99.50;;;;;;4954217;28;20138;-88
2020/12/12 11:58:50;;;;;;;8.30;5.40;;;7.50;99.70;;;;;;4936813;29;20083;-88
2020/12/12 12:01:21;;;;;;;7.75;5.13;;;7.40;99.70;;;;;;4947127;29;20044;-86
2020/12/12 12:03:48;;;;;;;7.38;5.05;;;7.50;99.80;;;;;;4940356;28;20436;-86
2020/12/12 12:06:14;;;;;;;8.02;4.75;;;7.60;99.60;;;;;;4941352;29;20075;-85
2020/12/12 12:08:49;;;;;;;8.13;4.40;;;7.70;99.80;;;;;;4937063;29;20134;-88
2020/12/12 12:11:20;;;;;;;7.63;3.90;;;7.70;99.80;;;;;;4951773;29;20086;-88
2020/12/12 12:13:48;;;;;;;9.43;6.03;;;7.90;99.60;;;;;;4957741;29;20592;-88
2020/12/12 12:16:20;;;;;;;10.48;6.28;;;7.90;99.40;;;;;;4958319;29;20134;-89
2020/12/12 12:18:48;;;;;;;7.78;4.28;;;8.10;99.50;;;;;;4958012;29;20047;-88
2020/12/12 12:21:14;;;;;;;8.70;4.40;;;8.00;99.50;;;;;;4957921;28;20058;-88
2020/12/12 12:23:41;;;;;;;10.02;4.90;;;8.10;99.30;;;;;;4940596;29;20047;-88
2020/12/12 12:26:08;;;;;;;6.07;3.40;;;8.10;99.10;;;;;;4957716;29;20086;-89
2020/12/12 12:28:35;;;;;;;6.90;3.22;;;8.00;99.50;;;;;;4957980;28;20126;-88
2020/12/12 12:31:03;;;;;;;5.45;2.75;;;8.00;99.40;;;;;;4940777;29;20074;-88
2020/12/12 12:33:29;;;;;;;4.97;2.90;;;8.10;99.50;;;;;;4958023;28;20085;-88
2020/12/12 12:35:56;;;;;;;5.15;2.72;;;8.10;99.20;;;;;;4946865;28;20086;-88
2020/12/12 12:38:23;;;;;;;5.30;2.90;;;8.20;99.40;;;;;;4955835;29;20134;-87
2020/12/12 12:40:50;;;;;;;5.82;3.00;;;8.10;99.30;;;;;;4930261;29;20409;-87
2020/12/12 12:43:17;;;;;;;5.60;3.08;;;8.10;99.40;;;;;;4911580;29;20055;-92
2020/12/12 12:45:44;;;;;;;7.40;3.10;;;8.10;99.60;;;;;;4907231;29;20131;-87
2020/12/12 12:48:11;;;;;;;5.40;2.97;;;8.20;99.30;;;;;;4920085;29;20083;-88
2020/12/12 12:50:38;;;;;;;6.18;2.83;;;8.10;99.50;;;;;;4940571;29;20082;-91
2020/12/12 12:53:07;;;;;;;6.60;3.08;;;8.00;99.70;;;;;;4941657;29;20055;-91
2020/12/12 12:55:34;;;;;;;7.53;3.10;;;8.00;99.60;;;;;;4919806;29;20545;-89
2020/12/12 12:58:02;;;;;;;5.55;2.88;;;8.00;99.80;;;;;;4939438;29;20605;-92
2020/12/12 13:00:30;;;;;;;5.53;3.50;;;8.10;99.80;;;;;;4952764;29;20127;-92
2020/12/12 13:02:58;;;;;;;7.47;3.30;;;8.00;99.90;;;;;;4938766;29;20572;-91
2020/12/12 13:05:25;;;;;;;6.68;3.30;;;8.10;99.90;;;;;;4946168;29;20123;-91
2020/12/12 13:07:52;;;;;;;6.72;3.47;;;8.10;99.70;;;;;;4963604;29;20078;-92
2020/12/12 13:10:18;;;;;;;6.80;3.47;;;8.10;99.90;;;;;;4934218;29;20122;-91
2020/12/12 13:12:45;;;;;;;6.22;3.55;;;8.10;99.90;;;;;;4948442;29;20541;-91
2020/12/12 13:15:12;;;;;;;6.25;3.45;;;8.10;99.90;;;;;;4940286;29;20059;-92
2020/12/12 13:17:39;;;;;;;7.72;3.70;;;8.10;99.90;;;;;;4955504;28;20081;-87
2020/12/12 13:20:14;;;;;;;5.70;3.40;;;8.10;99.90;;;;;;4930240;29;20083;-88
2020/12/12 13:22:42;;;;;;;6.93;3.70;;;8.20;99.90;;;;;;4951632;29;20505;-88
2020/12/12 13:25:09;;;;;;;6.65;3.28;;;8.10;99.90;;;;;;4924018;29;20510;-88
2020/12/12 13:27:36;;;;;;;6.18;3.30;;;8.20;99.70;;;;;;4923302;29;20537;-88
2020/12/12 13:30:23;;;;;;;6.82;3.40;;;8.30;99.70;;;;;;4942149;29;20063;-88
2020/12/12 13:32:50;;;;;;;8.10;3.97;;;8.20;99.90;;;;;;4957861;29;20059;-89
2020/12/12 13:35:17;;;;;;;9.30;4.00;;;8.20;99.90;;;;;;4941150;29;20158;-89
2020/12/12 13:37:44;;;;;;;6.72;3.58;;;8.30;99.90;;;;;;4940391;29;20054;-89
2020/12/12 13:40:11;;;;;;;7.88;4.30;;;8.30;99.90;;;;;;4960479;29;20078;-89
2020/12/12 13:42:38;;;;;;;7.57;3.97;;;8.20;99.90;;;;;;4956494;29;20462;-87
2020/12/12 13:45:07;;;;;;;7.65;4.20;;;8.10;99.90;;;;;;4939600;29;20055;-86
2020/12/12 13:47:34;;;;;;;7.85;4.43;;;8.20;99.90;;;;;;4948479;29;20051;-86
2020/12/12 13:50:00;;;;;;;7.82;4.03;;;8.10;99.90;;;;;;4932924;29;20075;-87
2020/12/12 13:52:27;;;;;;;7.45;4.15;;;8.20;99.90;;;;;;4949891;29;20055;-89
2020/12/12 13:54:54;;;;;;;7.50;4.68;;;8.20;99.90;;;;;;4956324;29;20130;-88
2020/12/12 13:57:21;;;;;;;6.05;3.65;;;8.20;99.90;;;;;;4944239;29;20089;-89
2020/12/12 13:59:48;;;;;;;7.30;3.83;;;8.30;99.90;;;;;;4956957;29;20179;-90
2020/12/12 14:02:15;;;;;;;6.43;3.65;;;8.20;99.90;;;;;;4940983;29;20130;-89
2020/12/12 14:04:41;;;;;;;7.60;4.07;;;8.20;99.90;;;;;;4957634;29;20474;-90
2020/12/12 14:07:15;;;;;;;6.65;3.35;;;8.20;99.90;;;;;;4940472;29;20139;-90
2020/12/12 14:10:06;;;;;;;6.72;3.22;;;8.30;99.90;;;;;;4956413;29;20126;-89
2020/12/12 14:23:29;;;;;;;5.55;2.45;;;8.20;99.90;;;;;;4956736;29;20298;-90
2020/12/12 14:28:43;;;;;;;4.85;2.22;;;8.10;99.90;;;;;;4953549;29;20047;-89
2020/12/12 14:31:10;;;;;;;4.72;2.25;;;8.20;99.90;;;;;;4956598;28;20086;-90
2020/12/12 14:33:37;;;;;;;7.65;4.03;;;8.20;99.90;;;;;;4955495;29;20051;-90
2020/12/12 14:36:04;;;;;;;9.00;5.10;;;8.30;99.90;;;;;;4955253;29;20151;-89
2020/12/12 14:38:31;;;;;;;5.57;2.47;;;8.20;99.80;;;;;;4955861;29;20130;-89
2020/12/12 14:40:57;;;;;;;4.40;2.10;;;8.30;99.80;;;;;;4956574;28;20143;-90
2020/12/12 14:43:24;;;;;;;4.55;2.13;;;8.30;99.90;;;;;;4924121;29;20043;-90
2020/12/12 14:45:52;;;;;;;6.15;2.60;;;8.30;99.70;;;;;;4939156;29;20545;-91
2020/12/12 14:48:19;;;;;;;4.30;2.13;;;8.20;99.80;;;;;;4956357;29;20568;-91
2020/12/12 14:50:46;;;;;;;4.40;1.77;;;8.30;99.80;;;;;;4956416;29;20133;-89
2020/12/12 14:53:18;;;;;;;3.95;1.90;;;8.20;99.60;;;;;;4940031;29;20577;-89
2020/12/12 14:55:45;;;;;;;5.25;2.00;;;8.20;99.80;;;;;;4956678;29;20110;-91
2020/12/12 14:58:12;;;;;;;3.80;1.65;;;8.30;99.70;;;;;;4956487;28;20019;-90
2020/12/12 15:00:39;;;;;;;5.65;2.20;;;8.40;99.70;;;;;;4955286;29;20138;-90
2020/12/12 15:03:07;;;;;;;4.78;2.20;;;8.20;99.70;;;;;;4940059;29;20050;-90
2020/12/12 15:05:33;;;;;;;5.45;2.20;;;8.30;99.90;;;;;;4939482;29;20051;-91
2020/12/12 15:08:00;;;;;;;4.53;2.13;;;8.30;99.70;;;;;;4938813;29;20583;-91
2020/12/12 15:10:26;;;;;;;5.10;2.20;;;8.30;99.60;;;;;;4956406;28;20572;-88
2020/12/12 15:12:53;;;;;;;3.28;1.80;;;8.20;99.80;;;;;;4956603;29;20512;-89
2020/12/12 15:15:20;;;;;;;4.13;2.00;;;8.10;99.70;;;;;;4938732;29;20142;-91
2020/12/12 15:17:47;;;;;;;4.40;2.20;;;8.10;99.50;;;;;;4956617;29;20058;-90
2020/12/12 15:20:14;;;;;;;4.43;2.00;;;8.10;99.50;;;;;;4956117;29;20134;-87
2020/12/12 15:22:41;;;;;;;4.13;1.98;;;8.10;99.60;;;;;;4954158;28;20558;-89
2020/12/12 15:25:07;;;;;;;5.47;2.20;;;8.10;99.50;;;;;;4923594;29;20138;-92
2020/12/12 15:27:34;;;;;;;4.55;2.10;;;8.00;99.40;;;;;;4955319;29;20133;-89
2020/12/12 15:30:01;;;;;;;4.40;2.03;;;8.10;99.20;;;;;;4955628;29;20416;-88
2020/12/12 15:32:35;;;;;;;5.68;2.40;;;7.90;99.30;;;;;;4952776;28;20502;-85
2020/12/12 15:35:02;;;;;;;5.85;2.30;;;7.90;99.40;;;;;;4955200;29;20055;-90
2020/12/12 15:37:30;;;;;;;4.53;2.05;;;7.90;99.50;;;;;;4956782;29;20123;-90
2020/12/12 15:39:56;;;;;;;6.47;2.08;;;7.90;99.10;;;;;;4957783;28;20142;-91
2020/12/12 15:42:23;;;;;;;3.40;1.92;;;7.90;99.00;;;;;;4957760;29;20577;-91
2020/12/12 15:44:49;;;;;;;5.25;2.22;;;7.90;99.10;;;;;;4960708;29;20134;-91
2020/12/12 15:47:17;;;;;;;5.53;2.25;;;7.90;99.10;;;;;;4960551;28;20146;-90
2020/12/12 15:49:44;;;;;;;5.88;2.38;;;8.00;99.10;;;;;;4943306;29;20043;-92
2020/12/12 15:52:11;;;;;;;4.03;2.17;;;7.80;99.10;;;;;;4960235;28;20050;-90
2020/12/12 15:54:39;;;;;;;4.75;2.28;;;7.90;99.10;;;;;;4960243;29;20111;-91
2020/12/12 15:57:05;;;;;;;13.45;6.70;;;7.90;99.00;;;;;;4959045;29;20134;-91
2020/12/12 15:59:32;;;;;;;23.55;9.75;;;7.90;99.10;;;;;;4959480;28;20473;-91
2020/12/12 16:01:59;;;;;;;6.18;2.92;;;7.90;99.10;;;;;;4958723;29;20436;-92
2020/12/12 16:04:26;;;;;;;5.15;2.40;;;8.00;99.30;;;;;;4958828;29;20051;-91
2020/12/12 16:06:52;;;;;;;5.68;2.80;;;7.90;99.10;;;;;;4959645;29;20098;-92
2020/12/12 16:09:19;;;;;;;5.15;2.47;;;7.90;99.00;;;;;;4958779;29;20131;-90
2020/12/12 16:11:46;;;;;;;4.38;2.42;;;7.90;99.10;;;;;;4959875;29;20090;-92
2020/12/12 16:14:13;;;;;;;5.30;2.35;;;7.90;99.50;;;;;;4959430;28;20061;-90
2020/12/12 16:16:39;;;;;;;5.70;2.60;;;7.90;99.30;;;;;;4959090;28;20129;-91
2020/12/12 16:19:06;;;;;;;5.60;2.78;;;7.90;99.50;;;;;;4959589;28;20130;-91
2020/12/12 16:21:33;;;;;;;4.07;2.20;;;7.80;99.40;;;;;;4974709;28;20143;-91
2020/12/12 16:24:01;;;;;;;6.88;2.38;;;7.70;99.40;;;;;;4957315;29;20126;-90
2020/12/12 16:26:29;;;;;;;6.00;2.60;;;7.70;99.50;;;;;;4959076;29;20058;-90
2020/12/12 16:28:56;;;;;;;5.18;2.22;;;7.70;99.50;;;;;;4958163;29;20058;-91
2020/12/12 16:31:23;;;;;;;5.50;2.50;;;7.60;99.50;;;;;;4950130;28;20056;-91
2020/12/12 16:33:50;;;;;;;6.78;2.63;;;7.60;99.50;;;;;;4940222;29;20143;-90
2020/12/12 16:36:16;;;;;;;6.38;2.50;;;7.70;99.60;;;;;;4922505;29;20465;-90
2020/12/12 16:38:43;;;;;;;5.43;2.42;;;7.60;99.50;;;;;;4923340;29;20130;-91
2020/12/12 16:41:10;;;;;;;4.95;2.28;;;7.60;99.60;;;;;;4940048;29;20130;-90
2020/12/12 16:43:40;;;;;;;5.70;2.60;;;7.60;99.80;;;;;;4939849;29;20055;-90
2020/12/12 16:46:07;;;;;;;4.72;2.33;;;7.70;99.60;;;;;;4947343;29;20039;-90
2020/12/12 16:48:34;;;;;;;4.82;2.00;;;7.60;99.50;;;;;;4925400;29;20158;-89
2020/12/12 16:51:00;;;;;;;6.35;2.90;;;7.60;99.70;;;;;;4938850;29;20122;-91
2020/12/12 16:53:28;;;;;;;5.47;2.67;;;7.50;99.70;;;;;;4923686;29;20131;-90
2020/12/12 16:55:56;;;;;;;5.25;2.50;;;7.60;99.90;;;;;;4940030;29;20063;-91
2020/12/12 16:58:22;;;;;;;5.78;2.15;;;7.50;99.80;;;;;;4906171;29;20043;-91
2020/12/12 17:00:49;;;;;;;4.88;2.30;;;7.60;99.50;;;;;;4939203;29;20241;-90
2020/12/12 17:03:16;;;;;;;5.32;2.80;;;7.60;99.40;;;;;;4948067;29;20075;-89
2020/12/12 17:05:43;;;;;;;5.47;2.30;;;7.60;99.80;;;;;;4936180;29;20078;-88
2020/12/12 17:08:10;;;;;;;6.07;2.53;;;7.60;99.60;;;;;;4945375;29;20083;-93
2020/12/12 17:10:38;;;;;;;4.32;2.40;;;7.70;99.40;;;;;;4940788;29;20126;-91
2020/12/12 17:13:05;;;;;;;5.55;2.70;;;7.60;99.40;;;;;;4939169;29;20608;-92
2020/12/12 17:15:32;;;;;;;4.45;2.38;;;7.70;99.50;;;;;;4922453;29;20134;-92
2020/12/12 17:17:58;;;;;;;31.55;13.43;;;7.60;99.60;;;;;;4921576;29;20048;-91
2020/12/12 17:20:35;;;;;;;6.47;3.38;;;7.60;99.60;;;;;;4922173;29;20139;-91
2020/12/12 17:23:01;;;;;;;5.50;3.15;;;7.50;99.70;;;;;;4924875;29;20071;-91
2020/12/12 17:25:28;;;;;;;5.80;3.10;;;7.40;99.70;;;;;;4939572;29;20079;-93
2020/12/12 17:27:56;;;;;;;5.43;2.90;;;7.40;99.80;;;;;;4942005;29;20079;-93
2020/12/12 17:30:23;;;;;;;5.57;2.88;;;7.40;99.90;;;;;;4922872;29;20457;-90
2020/12/12 17:32:51;;;;;;;5.40;2.90;;;7.40;99.90;;;;;;4940173;29;20054;-90
2020/12/12 17:35:19;;;;;;;7.68;3.20;;;7.50;99.80;;;;;;4958065;29;20142;-91
2020/12/12 17:37:47;;;;;;;4.45;2.70;;;7.40;99.90;;;;;;4956469;29;20134;-90
2020/12/12 17:40:16;;;;;;;5.97;3.47;;;7.40;99.90;;;;;;4958370;29;20078;-90
2020/12/12 17:42:43;;;;;;;5.32;2.85;;;7.40;99.70;;;;;;4958012;29;20405;-92
2020/12/12 17:45:13;;;;;;;5.25;2.85;;;7.60;99.80;;;;;;4957696;29;20146;-90
2020/12/12 17:47:42;;;;;;;5.95;3.42;;;7.40;99.90;;;;;;4956588;29;20404;-93
2020/12/12 17:50:11;;;;;;;7.45;3.50;;;7.50;99.90;;;;;;4957993;29;20138;-75
2020/12/12 17:52:43;;;;;;;6.22;3.05;;;7.40;99.90;;;;;;4939690;29;20493;-87
2020/12/12 17:55:11;;;;;;;5.13;2.80;;;7.60;99.80;;;;;;4956939;29;20081;-89
2020/12/12 17:57:38;;;;;;;7.45;3.05;;;7.60;99.40;;;;;;4956892;29;20133;-90
2020/12/12 18:00:08;;;;;;;5.95;2.97;;;7.80;99.20;;;;;;4955765;29;20134;-80
2020/12/12 18:02:37;;;;;;;8.00;3.60;;;8.10;98.80;;;;;;4955749;28;20138;-89
2020/12/12 18:05:04;;;;;;;5.32;2.88;;;7.90;98.40;;;;;;4956493;29;20106;-91
2020/12/12 18:07:31;;;;;;;5.05;2.88;;;7.90;98.80;;;;;;4956777;29;20075;-88
2020/12/12 18:09:58;;;;;;;5.85;3.00;;;7.70;98.80;;;;;;4956805;29;20058;-88
2020/12/12 18:12:26;;;;;;;6.05;3.00;;;7.70;99.00;;;;;;4956446;29;20102;-85
2020/12/12 18:14:52;;;;;;;6.45;3.33;;;7.70;99.20;;;;;;4957334;29;20143;-89
2020/12/12 18:17:19;;;;;;;6.90;3.67;;;7.50;99.20;;;;;;4962174;29;20074;-87
2020/12/12 18:19:46;;;;;;;5.15;3.10;;;7.40;99.50;;;;;;4963447;29;20047;-86
2020/12/12 18:22:13;;;;;;;4.97;2.78;;;7.50;99.50;;;;;;4961403;29;20054;-87
2020/12/12 18:24:39;;;;;;;5.97;3.20;;;7.40;99.60;;;;;;4962713;28;20078;-89
2020/12/12 18:27:07;;;;;;;5.78;3.25;;;7.30;99.90;;;;;;4963195;28;20047;-88
2020/12/12 18:29:35;;;;;;;5.63;2.88;;;7.30;99.90;;;;;;4955946;29;20055;-90
2020/12/12 18:32:02;;;;;;;4.65;2.90;;;7.40;99.60;;;;;;4956068;29;20055;-91
2020/12/12 18:34:29;;;;;;;5.03;3.10;;;7.40;99.90;;;;;;4956843;29;20409;-87
2020/12/12 18:36:55;;;;;;;6.75;3.22;;;7.30;99.90;;;;;;4957385;29;20138;-88
2020/12/12 18:39:24;;;;;;;6.38;3.13;;;7.40;99.80;;;;;;4956734;29;20078;-88
2020/12/12 18:41:51;;;;;;;5.43;3.03;;;7.40;99.90;;;;;;4956481;29;20106;-91
2020/12/12 18:44:18;;;;;;;5.05;3.00;;;7.40;99.90;;;;;;4961791;29;20082;-88
2020/12/12 18:46:47;;;;;;;5.65;3.33;;;7.30;99.90;;;;;;4961551;29;20548;-88
2020/12/12 18:49:15;;;;;;;6.55;3.72;;;7.30;99.90;;;;;;4961264;29;20138;-88
2020/12/12 18:51:43;;;;;;;4.90;3.17;;;7.30;99.90;;;;;;4961882;29;20149;-83
2020/12/12 18:54:10;;;;;;;5.72;3.35;;;7.30;99.90;;;;;;4953515;29;20086;-87
2020/12/12 18:56:40;;;;;;;5.72;3.35;;;7.20;99.90;;;;;;4961736;28;20106;-89
2020/12/12 18:59:07;;;;;;;7.03;3.58;;;7.10;99.90;;;;;;4956015;29;20107;-89
2020/12/12 19:01:37;;;;;;;6.80;4.10;;;7.10;99.90;;;;;;4962209;29;20044;-85
2020/12/12 19:04:06;;;;;;;7.32;4.00;;;7.10;99.90;;;;;;4960908;29;20568;-87
2020/12/12 19:06:32;;;;;;;12.32;5.28;;;7.10;99.90;;;;;;4955656;29;20111;-84
2020/12/12 19:09:00;;;;;;;12.10;6.20;;;7.00;99.90;;;;;;4955068;29;20588;-85
2020/12/12 19:11:26;;;;;;;9.52;4.97;;;7.00;99.90;;;;;;4954700;29;20051;-84
2020/12/12 19:13:53;;;;;;;10.07;5.32;;;7.00;99.90;;;;;;4956423;28;20126;-77
2020/12/12 19:16:23;;;;;;;7.82;4.22;;;7.00;99.90;;;;;;4940384;29;20047;-85
2020/12/12 19:18:49;;;;;;;7.03;4.55;;;6.90;99.90;;;;;;4958833;29;20441;-83
2020/12/12 19:21:17;;;;;;;6.55;4.00;;;6.90;99.90;;;;;;4926181;29;20400;-83
2020/12/12 19:23:44;;;;;;;6.47;3.95;;;7.10;99.90;;;;;;4953860;29;20051;-85
2020/12/12 19:26:11;;;;;;;6.75;3.67;;;6.90;99.90;;;;;;4958829;29;20083;-83
2020/12/12 19:28:37;;;;;;;6.45;3.80;;;6.90;99.90;;;;;;4958207;29;20043;-82
2020/12/12 19:31:04;;;;;;;5.93;3.53;;;6.90;99.90;;;;;;4958360;28;20147;-83
2020/12/12 19:33:31;;;;;;;6.10;3.45;;;7.00;99.90;;;;;;4955249;28;20110;-83
2020/12/12 19:35:58;;;;;;;6.38;3.67;;;7.10;99.90;;;;;;4931746;29;20090;-87
2020/12/12 19:38:28;;;;;;;7.25;4.05;;;7.10;99.90;;;;;;4946473;29;20141;-88
2020/12/12 19:40:56;;;;;;;7.03;3.88;;;7.20;99.90;;;;;;4945080;29;20138;-87
2020/12/12 19:43:23;;;;;;;7.00;3.95;;;7.00;99.90;;;;;;4947308;29;20054;-87
2020/12/12 19:45:51;;;;;;;7.80;3.53;;;7.10;99.90;;;;;;4940473;29;20131;-87
2020/12/12 19:48:18;;;;;;;7.13;3.83;;;7.00;99.90;;;;;;4940596;29;20075;-87
2020/12/12 19:50:45;;;;;;;7.05;3.60;;;7.10;99.90;;;;;;4955321;29;20052;-87
2020/12/12 19:53:11;;;;;;;6.38;3.13;;;7.10;99.90;;;;;;4944065;28;20079;-87
2020/12/12 19:55:39;;;;;;;6.50;3.53;;;7.20;99.90;;;;;;4941564;29;20060;-86
2020/12/12 19:58:05;;;;;;;5.72;3.40;;;7.10;99.90;;;;;;4945518;29;20671;-87
2020/12/12 20:00:32;;;;;;;6.07;3.45;;;7.20;99.90;;;;;;4949370;28;20059;-88
2020/12/12 20:03:01;;;;;;;6.25;3.70;;;7.20;99.90;;;;;;4944215;29;20090;-87
2020/12/12 20:05:29;;;;;;;6.30;3.17;;;7.10;99.90;;;;;;4953351;29;20055;-87
2020/12/12 20:07:56;;;;;;;5.93;3.45;;;7.30;99.90;;;;;;4954578;28;20075;-87
2020/12/12 20:10:24;;;;;;;6.95;3.83;;;7.30;99.90;;;;;;4948812;29;20390;-88
2020/12/12 20:12:51;;;;;;;7.88;3.65;;;7.10;99.90;;;;;;4946681;28;20395;-89
2020/12/12 20:15:18;;;;;;;6.93;3.85;;;7.00;99.90;;;;;;4941735;29;20083;-88
2020/12/12 20:17:45;;;;;;;6.90;4.05;;;7.00;99.90;;;;;;4958068;28;20077;-87
2020/12/12 20:20:11;;;;;;;7.07;3.88;;;7.20;99.90;;;;;;4933847;29;20142;-88
2020/12/12 20:22:38;;;;;;;8.32;4.38;;;7.20;99.90;;;;;;4950118;29;20089;-87
2020/12/12 20:25:05;;;;;;;7.38;4.32;;;7.20;99.90;;;;;;4944427;28;20150;-88
2020/12/12 20:27:32;;;;;;;9.40;5.05;;;7.30;99.90;;;;;;4942264;29;20070;-87
2020/12/12 20:29:59;;;;;;;12.65;6.93;;;7.20;99.90;;;;;;4939950;29;20131;-88
2020/12/12 20:32:26;;;;;;;7.88;4.68;;;7.20;99.90;;;;;;4955316;28;20134;-88
2020/12/12 20:34:53;;;;;;;7.45;4.47;;;7.20;99.90;;;;;;4957120;28;20059;-87
2020/12/12 20:37:20;;;;;;;8.13;4.57;;;7.30;99.90;;;;;;4958838;29;20509;-88
2020/12/12 20:39:47;;;;;;;7.03;4.40;;;7.20;99.90;;;;;;4955809;29;20054;-88
2020/12/12 20:42:13;;;;;;;7.65;4.78;;;7.10;99.90;;;;;;4940472;29;20374;-88
2020/12/12 20:44:40;;;;;;;9.90;4.88;;;7.00;99.90;;;;;;4957131;28;20131;-87
2020/12/12 20:47:08;;;;;;;10.50;4.90;;;7.10;99.90;;;;;;4956689;28;20067;-87